createdAt,value
2022-12-23T00:01:51.252Z,3.28
2022-12-23T00:04:18.248Z,3.28
2022-12-23T00:06:45.158Z,3.24
2022-12-23T00:09:12.114Z,3.12
2022-12-23T00:11:58.926Z,3.14
2022-12-23T00:14:44.691Z,3.21
2022-12-23T00:17:22.204Z,3.21
2022-12-23T00:19:50.249Z,3.13
2022-12-23T00:22:17.179Z,3.15
2022-12-23T00:24:44.132Z,3.13
2022-12-23T00:27:11.066Z,3.05
2022-12-23T00:29:41.930Z,3.03
2022-12-23T00:32:09.083Z,3.05
2022-12-23T00:34:36.223Z,3.02
2022-12-23T00:37:03.062Z,2.90
2022-12-23T00:39:53.634Z,2.82
2022-12-23T00:42:40.655Z,2.95
2022-12-23T00:45:17.104Z,3.01
2022-12-23T00:48:03.984Z,3.03
2022-12-23T00:50:31.441Z,3.09
2022-12-23T00:52:58.773Z,3.12
2022-12-23T00:55:25.698Z,3.13
2022-12-23T00:57:52.609Z,3.11
2022-12-23T01:00:19.832Z,3.13
2022-12-23T01:03:05.893Z,3.14
2022-12-23T01:05:38.787Z,3.16
2022-12-23T01:08:11.499Z,3.15
2022-12-23T01:10:40.332Z,3.17
2022-12-23T01:13:07.682Z,3.16
2022-12-23T01:15:34.451Z,3.15
2022-12-23T01:18:01.924Z,3.04
2022-12-23T01:20:29.175Z,3.10
2022-12-23T01:22:56.038Z,3.13
2022-12-23T01:25:22.991Z,3.12
2022-12-23T01:27:49.887Z,3.04
2022-12-23T01:30:17.116Z,3.09
2022-12-23T01:32:51.033Z,3.11
2022-12-23T01:35:17.881Z,3.01
2022-12-23T01:37:45.208Z,3.08
2022-12-23T01:40:12.068Z,3.08
2022-12-23T01:42:44.866Z,3.15
2022-12-23T01:45:15.690Z,3.19
2022-12-23T01:48:26.389Z,3.21
2022-12-23T01:50:58.249Z,3.12
2022-12-23T01:53:34.191Z,3.19
2022-12-23T01:56:08.759Z,3.24
2022-12-23T01:58:39.012Z,3.27
2022-12-23T02:01:25.375Z,3.23
2022-12-23T02:03:56.276Z,3.27
2022-12-23T02:06:45.236Z,3.23
2022-12-23T02:09:19.106Z,3.34
2022-12-23T02:12:04.184Z,3.34
2022-12-23T02:15:18.185Z,3.33
2022-12-23T02:18:10.943Z,3.21
2022-12-23T02:20:46.874Z,3.30
2022-12-23T02:23:19.361Z,3.34
2022-12-23T02:26:16.811Z,3.24
2022-12-23T02:29:17.497Z,3.25
2022-12-23T02:31:47.509Z,3.23
2022-12-23T02:34:19.169Z,3.24
2022-12-23T02:36:53.150Z,3.25
2022-12-23T02:39:24.393Z,3.24
2022-12-23T02:41:59.241Z,3.25
2022-12-23T02:44:26.178Z,3.21
2022-12-23T02:46:59.519Z,3.24
2022-12-23T02:49:33.823Z,3.25
2022-12-23T02:52:03.820Z,3.18
2022-12-23T02:54:37.291Z,3.22
2022-12-23T02:57:04.994Z,3.25
2022-12-23T02:59:40.339Z,3.27
2022-12-23T03:02:07.358Z,3.26
2022-12-23T03:04:34.709Z,3.31
2022-12-23T03:07:07.487Z,3.35
2022-12-23T03:09:53.149Z,3.36
2022-12-23T03:12:23.823Z,3.36
2022-12-23T03:15:14.523Z,3.37
2022-12-23T03:17:47.199Z,3.35
2022-12-23T03:20:25.730Z,3.39
2022-12-23T03:23:10.570Z,3.34
2022-12-23T03:25:59.043Z,3.39
2022-12-23T03:28:34.058Z,3.34
2022-12-23T03:31:03.059Z,3.34
2022-12-23T03:33:39.389Z,3.40
2022-12-23T03:36:16.709Z,3.35
2022-12-23T03:38:45.319Z,3.31
2022-12-23T03:41:19.687Z,3.34
2022-12-23T03:43:51.441Z,3.40
2022-12-23T03:46:32.646Z,3.43
2022-12-23T03:49:04.397Z,3.45
2022-12-23T03:51:44.888Z,3.49
2022-12-23T03:54:15.146Z,3.46
2022-12-23T03:56:49.788Z,3.49
2022-12-23T03:59:20.442Z,3.50
2022-12-23T04:02:12.201Z,3.43
2022-12-23T04:04:45.143Z,3.35
2022-12-23T04:07:25.610Z,3.35
2022-12-23T04:09:55.568Z,3.38
2022-12-23T04:12:24.468Z,3.40
2022-12-23T04:14:51.964Z,3.32
2022-12-23T04:17:19.448Z,3.09
2022-12-23T04:19:50.893Z,3.13
2022-12-23T04:22:17.792Z,3.22
2022-12-23T04:24:44.659Z,3.22
2022-12-23T04:27:14.139Z,3.26
2022-12-23T04:29:42.016Z,3.27
2022-12-23T04:32:08.961Z,3.31
2022-12-23T04:34:36.547Z,3.31
2022-12-23T04:37:03.563Z,3.32
2022-12-23T04:39:30.457Z,3.35
2022-12-23T04:41:57.348Z,3.36
2022-12-23T04:44:24.313Z,3.36
2022-12-23T04:46:51.254Z,3.23
2022-12-23T04:49:18.268Z,3.16
2022-12-23T04:51:45.254Z,3.15
2022-12-23T04:54:12.149Z,3.19
2022-12-23T04:56:39.065Z,3.21
2022-12-23T04:59:05.909Z,3.21
2022-12-23T05:01:33.022Z,3.18
2022-12-23T05:03:59.944Z,3.16
2022-12-23T05:06:26.827Z,3.21
2022-12-23T05:08:53.761Z,3.26
2022-12-23T05:11:20.666Z,3.33
2022-12-23T05:13:47.596Z,3.37
2022-12-23T05:16:14.540Z,3.38
2022-12-23T05:18:42.177Z,3.42
2022-12-23T05:21:09.926Z,3.38
2022-12-23T05:23:36.898Z,3.42
2022-12-23T05:26:04.140Z,3.43
2022-12-23T05:28:31.316Z,3.45
2022-12-23T05:31:02.374Z,3.45
2022-12-23T05:33:29.395Z,3.46
2022-12-23T05:35:56.803Z,3.45
2022-12-23T05:38:24.353Z,3.49
2022-12-23T05:40:51.363Z,3.47
2022-12-23T05:43:18.566Z,3.44
2022-12-23T05:45:45.476Z,3.47
2022-12-23T05:48:12.448Z,3.50
2022-12-23T05:50:39.540Z,3.48
2022-12-23T05:53:07.331Z,3.51
2022-12-23T05:55:34.429Z,3.48
2022-12-23T05:58:01.943Z,3.46
2022-12-23T06:00:29.278Z,3.48
2022-12-23T06:02:56.323Z,3.46
2022-12-23T06:05:23.310Z,3.48
2022-12-23T06:07:50.537Z,3.49
2022-12-23T06:10:19.011Z,3.46
2022-12-23T06:12:45.894Z,3.42
2022-12-23T06:15:12.898Z,3.41
2022-12-23T06:17:40.043Z,3.40
2022-12-23T06:20:17.965Z,3.41
2022-12-23T06:22:47.088Z,3.40
2022-12-23T06:25:14.113Z,3.40
2022-12-23T06:27:41.060Z,3.38
2022-12-23T06:30:10.388Z,3.37
2022-12-23T06:32:39.054Z,3.35
2022-12-23T06:35:07.943Z,3.32
2022-12-23T06:37:34.978Z,3.34
2022-12-23T06:40:04.874Z,3.37
2022-12-23T06:42:31.905Z,3.35
2022-12-23T06:44:58.826Z,3.37
2022-12-23T06:47:25.739Z,3.37
2022-12-23T06:49:53.224Z,3.36
2022-12-23T06:52:20.241Z,3.36
2022-12-23T06:54:47.234Z,3.33
2022-12-23T06:57:14.035Z,3.32
2022-12-23T06:59:43.924Z,3.39
2022-12-23T07:02:12.171Z,3.42
2022-12-23T07:04:39.254Z,3.42
2022-12-23T07:07:06.054Z,3.43
2022-12-23T07:09:33.684Z,3.44
2022-12-23T07:12:03.204Z,3.46
2022-12-23T07:14:30.224Z,3.49
2022-12-23T07:16:57.179Z,3.51
2022-12-23T07:19:24.463Z,3.55
2022-12-23T07:21:51.446Z,3.57
2022-12-23T07:24:19.314Z,3.63
2022-12-23T07:26:46.519Z,3.62
2022-12-23T07:29:13.368Z,3.62
2022-12-23T07:31:41.353Z,3.61
2022-12-23T07:34:09.200Z,3.59
2022-12-23T07:36:36.039Z,3.51
2022-12-23T07:39:04.771Z,3.53
2022-12-23T07:41:32.860Z,3.50
2022-12-23T07:44:00.174Z,3.55
2022-12-23T07:46:27.184Z,3.42
2022-12-23T07:48:54.176Z,3.61
2022-12-23T07:51:21.067Z,3.55
2022-12-23T07:53:51.561Z,3.49
2022-12-23T07:56:19.604Z,3.56
2022-12-23T07:58:50.873Z,3.57
2022-12-23T08:01:21.473Z,3.58
2022-12-23T08:03:49.348Z,3.54
2022-12-23T08:06:16.989Z,3.54
2022-12-23T08:08:45.967Z,3.53
2022-12-23T08:11:14.561Z,3.53
2022-12-23T08:13:43.190Z,3.53
2022-12-23T08:16:11.207Z,3.55
2022-12-23T08:18:40.519Z,3.52
2022-12-23T08:21:20.648Z,3.55
2022-12-23T08:23:49.329Z,3.55
2022-12-23T08:26:19.451Z,3.57
2022-12-23T08:28:46.698Z,3.58
2022-12-23T08:31:21.819Z,3.61
2022-12-23T08:33:51.566Z,3.59
2022-12-23T08:36:24.488Z,3.55
2022-12-23T08:38:55.685Z,3.46
2022-12-23T08:41:26.413Z,3.41
2022-12-23T08:43:54.352Z,3.45
2022-12-23T08:46:21.406Z,3.47
2022-12-23T08:48:49.706Z,3.48
2022-12-23T08:51:19.702Z,3.47
2022-12-23T08:53:47.536Z,3.44
2022-12-23T08:56:20.910Z,3.44
2022-12-23T08:58:51.100Z,3.42
2022-12-23T09:01:20.037Z,3.44
2022-12-23T09:03:47.402Z,3.45
2022-12-23T09:06:29.664Z,3.45
2022-12-23T09:08:58.680Z,3.52
2022-12-23T09:11:27.934Z,3.49
2022-12-23T09:13:56.073Z,3.48
2022-12-23T09:16:23.644Z,3.50
2022-12-23T09:18:50.732Z,3.48
2022-12-23T09:21:20.225Z,3.44
2022-12-23T09:23:48.099Z,3.43
2022-12-23T09:26:19.678Z,3.38
2022-12-23T09:28:46.595Z,3.36
2022-12-23T09:31:14.233Z,3.40
2022-12-23T09:33:41.257Z,3.41
2022-12-23T09:36:08.534Z,3.38
2022-12-23T09:38:36.232Z,3.37
2022-12-23T09:41:20.727Z,3.44
2022-12-23T09:44:01.367Z,3.41
2022-12-23T09:46:32.285Z,3.38
2022-12-23T09:49:03.654Z,3.34
2022-12-23T09:51:31.071Z,3.35
2022-12-23T09:54:12.073Z,3.37
2022-12-23T09:56:48.578Z,3.42
2022-12-23T09:59:51.887Z,3.43
2022-12-23T10:02:40.179Z,3.38
2022-12-23T10:05:14.087Z,3.42
2022-12-23T10:07:54.864Z,3.42
2022-12-23T10:10:44.475Z,3.39
2022-12-23T10:13:31.738Z,3.31
2022-12-23T10:16:05.918Z,3.28
2022-12-23T10:18:55.763Z,3.28
2022-12-23T10:21:54.743Z,3.28
2022-12-23T10:24:26.481Z,3.30
2022-12-23T10:26:59.738Z,3.36
2022-12-23T10:29:31.242Z,3.35
2022-12-23T10:32:04.389Z,3.34
2022-12-23T10:35:01.626Z,3.35
2022-12-23T10:37:48.926Z,3.38
2022-12-23T10:40:38.427Z,3.36
2022-12-23T10:43:17.364Z,3.34
2022-12-23T10:46:24.641Z,3.31
2022-12-23T10:49:17.690Z,3.33
2022-12-23T10:51:52.497Z,3.39
2022-12-23T10:54:21.499Z,3.36
2022-12-23T10:56:48.494Z,3.37
2022-12-23T10:59:17.176Z,3.42
2022-12-23T11:01:47.587Z,3.45
2022-12-23T11:04:17.403Z,3.47
2022-12-23T11:06:52.859Z,3.49
2022-12-23T11:09:35.871Z,3.49
2022-12-23T11:12:06.567Z,3.46
2022-12-23T11:14:41.533Z,3.49
2022-12-23T11:17:27.020Z,3.48
2022-12-23T11:20:16.788Z,3.49
2022-12-23T11:22:49.292Z,3.52
2022-12-23T11:25:28.482Z,3.59
2022-12-23T11:27:59.212Z,3.55
2022-12-23T11:30:26.200Z,3.52
2022-12-23T11:32:53.534Z,3.63
2022-12-23T11:35:26.583Z,3.65
2022-12-23T11:37:53.817Z,3.64
2022-12-23T11:40:28.919Z,3.68
2022-12-23T11:43:03.982Z,3.59
2022-12-23T11:45:35.079Z,3.76
2022-12-23T11:48:06.093Z,3.78
2022-12-23T11:50:36.494Z,3.80
2022-12-23T11:53:14.909Z,3.78
2022-12-23T11:55:57.937Z,3.79
2022-12-23T11:58:25.309Z,3.84
2022-12-23T12:00:57.688Z,3.78
2022-12-23T12:03:36.030Z,3.80
2022-12-23T12:06:05.423Z,3.85
2022-12-23T12:08:36.246Z,3.85
2022-12-23T12:11:26.067Z,3.80
2022-12-23T12:14:05.824Z,3.90
2022-12-23T12:17:03.210Z,3.91
2022-12-23T12:19:36.035Z,3.90
2022-12-23T12:22:09.854Z,3.90
2022-12-23T12:24:44.053Z,3.93
2022-12-23T12:27:11.509Z,3.95
2022-12-23T12:29:52.140Z,4.01
2022-12-23T12:32:46.415Z,4.00
2022-12-23T12:35:26.977Z,3.99
2022-12-23T12:38:01.710Z,4.00
2022-12-23T12:40:37.898Z,4.00
2022-12-23T12:43:31.457Z,3.99
2022-12-23T12:46:10.569Z,4.01
2022-12-23T12:48:46.125Z,4.00
2022-12-23T12:51:30.439Z,3.99
2022-12-23T12:54:40.308Z,4.05
2022-12-23T12:57:18.464Z,4.04
2022-12-23T12:59:49.522Z,4.01
2022-12-23T13:02:47.470Z,4.02
2022-12-23T13:05:34.052Z,4.08
2022-12-23T13:08:26.562Z,4.10
2022-12-23T13:11:06.285Z,4.10
2022-12-23T13:14:16.812Z,4.10
2022-12-23T13:16:47.470Z,4.13
2022-12-23T13:19:29.252Z,4.22
2022-12-23T13:21:58.807Z,4.29
2022-12-23T13:24:47.668Z,4.18
2022-12-23T13:27:19.346Z,4.13
2022-12-23T13:30:13.822Z,4.09
2022-12-23T13:33:18.524Z,4.03
2022-12-23T13:36:09.441Z,3.99
2022-12-23T13:38:43.969Z,3.96
2022-12-23T13:41:38.177Z,3.99
2022-12-23T13:44:09.631Z,3.99
2022-12-23T13:46:48.972Z,4.00
2022-12-23T13:49:41.544Z,4.00
2022-12-23T13:52:17.495Z,4.05
2022-12-23T13:55:12.876Z,4.06
2022-12-23T13:57:46.064Z,4.06
2022-12-23T14:00:17.836Z,4.07
2022-12-23T14:02:57.087Z,4.09
2022-12-23T14:05:52.889Z,4.08
2022-12-23T14:08:19.848Z,4.09
2022-12-23T14:11:03.250Z,4.15
2022-12-23T14:13:51.759Z,4.17
2022-12-23T14:16:33.570Z,4.17
2022-12-23T14:19:18.761Z,4.17
2022-12-23T14:21:51.027Z,4.19
2022-12-23T14:25:03.072Z,4.24
2022-12-23T14:27:52.941Z,4.26
2022-12-23T14:30:45.646Z,4.32
2022-12-23T14:33:18.741Z,4.31
2022-12-23T14:35:45.670Z,4.35
2022-12-23T14:38:15.600Z,4.27
2022-12-23T14:40:58.690Z,4.33
2022-12-23T14:43:33.481Z,4.35
2022-12-23T14:46:05.964Z,4.34
2022-12-23T14:48:41.934Z,4.36
2022-12-23T14:51:08.706Z,4.35
2022-12-23T14:53:53.985Z,4.29
2022-12-23T14:56:38.306Z,4.31
2022-12-23T14:59:13.997Z,4.30
2022-12-23T15:01:47.916Z,4.32
2022-12-23T15:04:30.812Z,4.34
2022-12-23T15:07:02.836Z,4.36
2022-12-23T15:10:00.250Z,4.37
2022-12-23T15:12:31.874Z,4.39
2022-12-23T15:15:01.262Z,4.39
2022-12-23T15:17:30.996Z,4.33
2022-12-23T15:20:10.188Z,4.30
2022-12-23T15:22:38.586Z,4.26
2022-12-23T15:25:20.415Z,4.15
2022-12-23T15:27:49.011Z,4.18
2022-12-23T15:30:18.037Z,4.25
2022-12-23T15:32:48.059Z,4.25
2022-12-23T15:35:29.350Z,4.22
2022-12-23T15:37:57.172Z,4.12
2022-12-23T15:40:35.908Z,4.06
2022-12-23T15:43:17.059Z,4.10
2022-12-23T15:45:44.014Z,4.14
2022-12-23T15:48:29.218Z,4.15
2022-12-23T15:51:36.653Z,4.10
2022-12-23T15:54:07.875Z,4.07
2022-12-23T15:56:36.896Z,4.14
2022-12-23T15:59:04.610Z,4.16
2022-12-23T16:01:39.534Z,4.14
2022-12-23T16:04:08.884Z,4.18
2022-12-23T16:06:36.610Z,4.20
2022-12-23T16:09:05.137Z,4.17
2022-12-23T16:11:37.814Z,4.08
2022-12-23T16:14:31.768Z,4.15
2022-12-23T16:17:14.144Z,4.21
2022-12-23T16:19:44.979Z,4.18
2022-12-23T16:22:21.024Z,4.17
2022-12-23T16:24:50.972Z,4.22
2022-12-23T16:27:20.334Z,4.18
2022-12-23T16:29:50.831Z,4.24
2022-12-23T16:32:18.789Z,4.27
2022-12-23T16:34:49.615Z,4.30
2022-12-23T16:37:16.670Z,4.29
2022-12-23T16:39:44.626Z,4.31
2022-12-23T16:42:11.559Z,4.33
2022-12-23T16:44:38.525Z,4.33
2022-12-23T16:47:14.953Z,4.30
2022-12-23T16:49:42.217Z,4.26
2022-12-23T16:52:12.804Z,4.21
2022-12-23T16:54:39.653Z,4.16
2022-12-23T16:57:06.618Z,4.12
2022-12-23T16:59:37.391Z,3.99
2022-12-23T17:02:04.620Z,3.97
2022-12-23T17:04:31.709Z,3.97
2022-12-23T17:06:58.554Z,3.90
2022-12-23T17:09:25.623Z,3.81
2022-12-23T17:11:53.544Z,3.65
2022-12-23T17:14:22.858Z,3.58
2022-12-23T17:16:50.576Z,3.55
2022-12-23T17:19:23.637Z,3.50
2022-12-23T17:22:01.170Z,3.50
2022-12-23T17:24:28.440Z,3.55
2022-12-23T17:26:57.030Z,3.63
2022-12-23T17:29:24.692Z,3.69
2022-12-23T17:31:52.306Z,3.71
2022-12-23T17:34:22.343Z,3.71
2022-12-23T17:36:50.702Z,3.61
2022-12-23T17:39:19.153Z,3.64
2022-12-23T17:41:46.582Z,3.68
2022-12-23T17:44:14.813Z,3.64
2022-12-23T17:46:42.351Z,3.59
2022-12-23T17:49:09.534Z,3.62
2022-12-23T17:51:36.596Z,3.65
2022-12-23T17:54:04.922Z,3.69
2022-12-23T17:56:33.467Z,3.74
2022-12-23T17:59:00.393Z,3.78
2022-12-23T18:01:29.966Z,3.77
2022-12-23T18:03:58.243Z,3.77
2022-12-23T18:06:26.836Z,3.82
2022-12-23T18:08:53.993Z,3.81
2022-12-23T18:11:30.233Z,3.90
2022-12-23T18:13:57.773Z,3.90
2022-12-23T18:16:24.752Z,3.93
2022-12-23T18:18:51.968Z,3.87
2022-12-23T18:21:27.552Z,3.97
2022-12-23T18:23:57.220Z,3.99
2022-12-23T18:26:24.889Z,3.98
2022-12-23T18:28:54.211Z,3.89
2022-12-23T18:31:24.136Z,3.84
2022-12-23T18:33:51.828Z,3.87
2022-12-23T18:36:30.573Z,3.87
2022-12-23T18:39:01.632Z,3.89
2022-12-23T18:41:28.609Z,3.81
2022-12-23T18:43:57.483Z,3.70
2022-12-23T18:46:25.633Z,3.80
2022-12-23T18:48:53.968Z,3.77
2022-12-23T18:51:22.223Z,3.75
2022-12-23T18:53:49.898Z,3.57
2022-12-23T18:56:21.190Z,3.67
2022-12-23T18:58:48.531Z,3.72
2022-12-23T19:01:17.012Z,3.71
2022-12-23T19:03:49.778Z,3.77
2022-12-23T19:06:17.398Z,3.78
2022-12-23T19:08:45.014Z,3.77
2022-12-23T19:11:13.634Z,3.78
2022-12-23T19:13:41.116Z,3.81
2022-12-23T19:16:21.040Z,3.81
2022-12-23T19:18:49.496Z,3.80
2022-12-23T19:21:17.670Z,3.66
2022-12-23T19:23:44.728Z,3.64
2022-12-23T19:26:13.488Z,3.66
2022-12-23T19:28:41.857Z,3.68
2022-12-23T19:31:11.016Z,3.64
2022-12-23T19:33:38.942Z,3.60
2022-12-23T19:36:10.078Z,3.60
2022-12-23T19:38:37.167Z,3.56
2022-12-23T19:41:04.099Z,3.60
2022-12-23T19:43:31.108Z,3.64
2022-12-23T19:46:03.163Z,3.69
2022-12-23T19:48:30.241Z,3.66
2022-12-23T19:50:59.183Z,3.68
2022-12-23T19:53:27.177Z,3.69
2022-12-23T19:56:10.454Z,3.57
2022-12-23T19:58:39.640Z,3.68
2022-12-23T20:01:16.828Z,3.73
2022-12-23T20:03:44.898Z,3.79
2022-12-23T20:06:23.238Z,3.78
2022-12-23T20:09:00.357Z,3.77
2022-12-23T20:11:30.755Z,3.82
2022-12-23T20:13:58.472Z,3.79
2022-12-23T20:16:26.007Z,3.73
2022-12-23T20:18:53.800Z,3.72
2022-12-23T20:21:21.764Z,3.59
2022-12-23T20:23:49.100Z,3.69
2022-12-23T20:26:18.044Z,3.71
2022-12-23T20:28:45.524Z,3.77
2022-12-23T20:31:21.047Z,3.75
2022-12-23T20:33:49.738Z,3.76
2022-12-23T20:36:18.989Z,3.69
2022-12-23T20:38:47.286Z,3.56
2022-12-23T20:41:20.478Z,3.45
2022-12-23T20:44:02.721Z,3.43
2022-12-23T20:46:34.823Z,3.37
2022-12-23T20:49:01.801Z,3.47
2022-12-23T20:51:28.638Z,3.51
2022-12-23T20:53:59.748Z,3.52
2022-12-23T20:56:27.783Z,3.48
2022-12-23T20:58:55.403Z,3.38
2022-12-23T21:01:23.177Z,3.54
2022-12-23T21:03:50.441Z,3.58
2022-12-23T21:06:17.424Z,3.59
2022-12-23T21:08:44.537Z,3.55
2022-12-23T21:11:11.554Z,3.60
2022-12-23T21:13:40.458Z,3.67
2022-12-23T21:16:11.144Z,3.61
2022-12-23T21:18:46.539Z,3.60
2022-12-23T21:21:13.743Z,3.55
2022-12-23T21:23:41.921Z,3.53
2022-12-23T21:26:18.442Z,3.57
2022-12-23T21:28:46.671Z,3.60
2022-12-23T21:31:18.713Z,3.67
2022-12-23T21:33:47.151Z,3.72
2022-12-23T21:36:20.021Z,3.56
2022-12-23T21:38:48.228Z,3.59
2022-12-23T21:41:21.847Z,3.55
2022-12-23T21:43:49.811Z,3.53
2022-12-23T21:46:19.399Z,3.67
2022-12-23T21:48:46.843Z,3.70
2022-12-23T21:51:14.971Z,3.68
2022-12-23T21:53:43.075Z,3.76
2022-12-23T21:56:12.543Z,3.72
2022-12-23T21:58:40.337Z,3.80
2022-12-23T22:01:19.139Z,3.77
2022-12-23T22:03:48.221Z,3.80
2022-12-23T22:06:21.608Z,3.77
2022-12-23T22:08:49.305Z,3.71
2022-12-23T22:11:19.184Z,3.72
2022-12-23T22:13:46.452Z,3.75
2022-12-23T22:16:18.724Z,3.69
2022-12-23T22:18:46.013Z,3.72
2022-12-23T22:21:15.266Z,3.70
2022-12-23T22:23:42.841Z,3.66
2022-12-23T22:26:14.020Z,3.66
2022-12-23T22:28:43.964Z,3.60
2022-12-23T22:31:25.535Z,3.62
2022-12-23T22:33:52.403Z,3.53
2022-12-23T22:36:19.334Z,3.61
2022-12-23T22:38:51.904Z,3.66
2022-12-23T22:41:18.920Z,3.68
2022-12-23T22:43:45.977Z,3.68
2022-12-23T22:46:13.597Z,3.69
2022-12-23T22:48:40.701Z,3.71
2022-12-23T22:51:16.531Z,3.73
2022-12-23T22:53:44.133Z,3.74
2022-12-23T22:56:12.292Z,3.75
2022-12-23T22:58:39.571Z,3.69
2022-12-23T23:01:06.914Z,3.66
2022-12-23T23:03:33.992Z,3.70
2022-12-23T23:06:07.059Z,3.66
2022-12-23T23:08:34.989Z,3.69
2022-12-23T23:11:04.639Z,3.59
2022-12-23T23:13:34.489Z,3.57
2022-12-23T23:16:02.181Z,3.59
2022-12-23T23:18:29.629Z,3.64
2022-12-23T23:20:56.778Z,3.59
2022-12-23T23:23:23.653Z,3.60
2022-12-23T23:25:50.942Z,3.65
2022-12-23T23:28:18.106Z,3.57
2022-12-23T23:30:44.930Z,3.54
2022-12-23T23:33:12.156Z,3.56
2022-12-23T23:35:39.022Z,3.45
2022-12-23T23:38:05.986Z,3.44
2022-12-23T23:40:33.003Z,3.49
2022-12-23T23:43:00.457Z,3.40
2022-12-23T23:45:27.661Z,3.38
2022-12-23T23:47:55.521Z,3.40
2022-12-23T23:50:23.052Z,3.40
2022-12-23T23:52:49.924Z,3.35
2022-12-23T23:55:16.756Z,3.40
2022-12-23T23:57:43.568Z,3.45
